Terminal Aerodrome Forecast
Issued by NWS Cleveland, OH

Home | Current Version | Previous Version | Graphics & Text | Print | Product List | Glossary Off
Versions: 1 2 3 4 5 6 7 8 9 10 11 12

000
FTUS41 KCLE 191100
TAFMFD
TAF
KMFD 191128Z 1912/2012 02008KT 6SM BR SCT035
     FM191400 04010G20KT P6SM SKC
     FM192300 07007KT P6SM SCT250=

USA.gov is the U.S. government's official web portal to all federal, state and local government web resources and services.